createdAt,value
2024-05-09T00:02:02.133Z,97108.52
2024-05-09T00:04:34.963Z,97104.84
2024-05-09T00:07:07.586Z,97108.84
2024-05-09T00:09:40.346Z,97109.23
2024-05-09T00:12:13.098Z,97110.62
2024-05-09T00:14:46.431Z,97113.90
2024-05-09T00:17:19.137Z,97116.50
2024-05-09T00:19:51.881Z,97114.83
2024-05-09T00:22:24.644Z,97111.53
2024-05-09T00:24:57.296Z,97112.83
2024-05-09T00:27:29.871Z,97108.05
2024-05-09T00:30:04.122Z,97109.13
2024-05-09T00:32:37.057Z,97107.44
2024-05-09T00:35:10.439Z,97105.63
2024-05-09T00:37:43.114Z,97102.67
2024-05-09T00:40:22.938Z,97104.16
2024-05-09T00:43:03.582Z,97105.27
2024-05-09T00:45:36.478Z,97104.92
2024-05-09T00:48:11.571Z,97105.39
2024-05-09T00:50:47.456Z,97110.05
2024-05-09T00:53:21.541Z,97105.55
2024-05-09T00:55:54.605Z,97110.48
2024-05-09T00:58:27.970Z,97112.45
2024-05-09T01:01:01.962Z,97111.59
2024-05-09T01:03:34.697Z,97110.92
2024-05-09T01:06:07.776Z,97113.42
2024-05-09T01:08:40.539Z,97116.70
2024-05-09T01:11:13.238Z,97113.27
2024-05-09T01:13:46.453Z,97119.06
2024-05-09T01:16:19.243Z,97123.27
2024-05-09T01:18:52.371Z,97123.13
2024-05-09T01:21:25.108Z,97127.11
2024-05-09T01:23:57.899Z,97127.70
2024-05-09T01:26:31.173Z,97125.52
2024-05-09T01:29:03.835Z,97128.42
2024-05-09T01:31:36.642Z,97130.25
2024-05-09T01:34:09.320Z,97124.85
2024-05-09T01:36:42.066Z,97122.67
2024-05-09T01:39:15.037Z,97124.95
2024-05-09T01:41:47.598Z,97124.61
2024-05-09T01:44:20.693Z,97131.80
2024-05-09T01:46:53.514Z,97129.47
2024-05-09T01:49:26.437Z,97130.41
2024-05-09T01:51:59.267Z,97135.18
2024-05-09T01:54:31.807Z,97134.50
2024-05-09T01:57:04.307Z,97138.20
2024-05-09T01:59:36.777Z,97135.91
2024-05-09T02:02:09.576Z,97135.61
2024-05-09T02:04:42.533Z,97136.09
2024-05-09T02:07:15.230Z,97134.52
2024-05-09T02:09:47.853Z,97136.56
2024-05-09T02:12:20.630Z,97136.45
2024-05-09T02:14:54.421Z,97134.88
2024-05-09T02:17:27.404Z,97134.70
2024-05-09T02:20:00.390Z,97131.22
2024-05-09T02:22:33.018Z,97138.13
2024-05-09T02:25:05.816Z,97139.73
2024-05-09T02:27:38.644Z,97140.68
2024-05-09T02:30:19.083Z,97142.27
2024-05-09T02:32:59.152Z,97141.39
2024-05-09T02:35:32.267Z,97144.03
2024-05-09T02:38:05.810Z,97138.50
2024-05-09T02:40:39.906Z,97134.60
2024-05-09T02:43:14.668Z,97131.98
2024-05-09T02:45:47.682Z,97135.48
2024-05-09T02:48:20.699Z,97131.18
2024-05-09T02:50:53.858Z,97132.16
2024-05-09T02:53:26.833Z,97126.73
2024-05-09T02:55:59.654Z,97133.20
2024-05-09T02:58:32.319Z,97127.71
2024-05-09T03:01:05.439Z,97126.05
2024-05-09T03:03:38.254Z,97122.34
2024-05-09T03:06:11.040Z,97125.45
2024-05-09T03:08:47.129Z,97129.11
2024-05-09T03:11:26.885Z,97125.93
2024-05-09T03:14:00.268Z,97124.16
2024-05-09T03:16:33.637Z,97125.17
2024-05-09T03:19:06.824Z,97124.36
2024-05-09T03:21:42.576Z,97123.27
2024-05-09T03:24:15.583Z,97124.04
2024-05-09T03:26:48.751Z,97122.66
2024-05-09T03:29:22.445Z,97122.63
2024-05-09T03:31:55.730Z,97122.96
2024-05-09T03:34:28.484Z,97124.48
2024-05-09T03:37:01.386Z,97123.69
2024-05-09T03:39:34.401Z,97122.41
2024-05-09T03:42:08.424Z,97121.27
2024-05-09T03:44:41.797Z,97125.19
2024-05-09T03:47:14.493Z,97124.27
2024-05-09T03:49:48.006Z,97123.02
2024-05-09T03:52:21.005Z,97119.99
2024-05-09T03:54:54.323Z,97118.34
2024-05-09T03:57:26.931Z,97117.93
2024-05-09T03:59:59.799Z,97119.56
2024-05-09T04:02:32.772Z,97121.63
2024-05-09T04:05:06.656Z,97126.75
2024-05-09T04:07:40.661Z,97122.92
2024-05-09T04:10:21.149Z,97126.61
2024-05-09T04:13:01.303Z,97128.38
2024-05-09T04:15:34.761Z,97133.08
2024-05-09T04:18:08.760Z,97136.45
2024-05-09T04:20:42.065Z,97129.23
2024-05-09T04:23:15.714Z,97130.90
2024-05-09T04:25:49.194Z,97127.48
2024-05-09T04:28:24.194Z,97123.23
2024-05-09T04:30:55.119Z,97123.00
2024-05-09T04:33:28.294Z,97123.83
2024-05-09T04:36:01.267Z,97126.34
2024-05-09T04:38:34.319Z,97122.80
2024-05-09T04:41:08.488Z,97123.55
2024-05-09T04:43:41.682Z,97121.11
2024-05-09T04:46:14.400Z,97120.02
2024-05-09T04:48:47.446Z,97119.19
2024-05-09T04:51:20.135Z,97111.65
2024-05-09T04:53:53.175Z,97111.50
2024-05-09T04:56:26.029Z,97108.43
2024-05-09T04:58:59.066Z,97105.29
2024-05-09T05:01:31.947Z,97107.90
2024-05-09T05:04:05.509Z,97102.96
2024-05-09T05:06:38.640Z,97101.46
2024-05-09T05:09:11.656Z,97100.59
2024-05-09T05:11:44.533Z,97097.45
2024-05-09T05:14:17.314Z,97096.66
2024-05-09T05:16:50.276Z,97096.44
2024-05-09T05:19:23.113Z,97091.08
2024-05-09T05:21:56.279Z,97088.64
2024-05-09T05:24:29.397Z,97087.52
2024-05-09T05:27:02.012Z,97082.45
2024-05-09T05:29:35.203Z,97084.55
2024-05-09T05:32:09.992Z,97079.99
2024-05-09T05:34:42.785Z,97075.04
2024-05-09T05:37:15.411Z,97073.88
2024-05-09T05:39:48.811Z,97071.70
2024-05-09T05:42:21.376Z,97068.20
2024-05-09T05:44:53.940Z,97067.88
2024-05-09T05:47:26.685Z,97065.41
2024-05-09T05:49:59.715Z,97066.50
2024-05-09T05:52:32.649Z,97063.35
2024-05-09T05:55:05.547Z,97064.16
2024-05-09T05:57:38.247Z,97060.27
2024-05-09T06:00:21.389Z,97052.38
2024-05-09T06:02:58.781Z,97050.23
2024-05-09T06:05:31.693Z,97045.20
2024-05-09T06:08:04.466Z,97041.15
2024-05-09T06:10:39.902Z,97039.13
2024-05-09T06:13:14.688Z,97036.32
2024-05-09T06:15:45.585Z,97033.18
2024-05-09T06:18:18.657Z,97032.65
2024-05-09T06:20:52.749Z,97026.90
2024-05-09T06:23:26.080Z,97024.48
2024-05-09T06:25:58.707Z,97018.88
2024-05-09T06:28:31.301Z,97021.73
2024-05-09T06:31:05.253Z,97019.04
2024-05-09T06:33:38.954Z,97013.53
2024-05-09T06:36:12.022Z,97013.78
2024-05-09T06:38:44.748Z,97015.30
2024-05-09T06:41:17.596Z,97010.95
2024-05-09T06:43:50.362Z,97005.15
2024-05-09T06:46:23.015Z,97007.81
2024-05-09T06:48:55.889Z,97001.80
2024-05-09T06:51:29.133Z,96999.39
2024-05-09T06:54:01.711Z,96997.69
2024-05-09T06:56:34.751Z,96995.88
2024-05-09T06:59:07.496Z,96995.23
2024-05-09T07:01:40.643Z,96991.67
2024-05-09T07:04:13.709Z,96991.52
2024-05-09T07:06:46.463Z,96996.55
2024-05-09T07:09:19.535Z,96996.23
2024-05-09T07:11:52.580Z,96989.17
2024-05-09T07:14:25.308Z,96985.14
2024-05-09T07:16:58.009Z,96981.90
2024-05-09T07:19:30.877Z,96982.09
2024-05-09T07:22:03.604Z,96980.35
2024-05-09T07:24:37.792Z,96972.98
2024-05-09T07:27:10.781Z,96965.89
2024-05-09T07:29:44.680Z,96963.16
2024-05-09T07:32:17.484Z,96960.84
2024-05-09T07:34:50.439Z,96963.00
2024-05-09T07:37:22.968Z,96961.66
2024-05-09T07:39:55.543Z,96958.89
2024-05-09T07:42:28.050Z,96952.64
2024-05-09T07:45:20.602Z,96949.04
2024-05-09T07:49:43.644Z,96947.80
2024-05-09T07:53:38.898Z,96947.18
2024-05-09T07:56:14.269Z,96945.20
2024-05-09T07:58:47.439Z,96939.58
2024-05-09T08:01:21.286Z,96933.20
2024-05-09T08:03:54.413Z,96934.64
2024-05-09T08:06:27.663Z,96935.89
2024-05-09T08:09:05.263Z,96927.88
2024-05-09T08:11:40.944Z,96934.45
2024-05-09T08:14:13.379Z,96932.98
2024-05-09T08:16:46.574Z,96937.60
2024-05-09T08:19:19.167Z,96930.71
2024-05-09T08:21:52.066Z,96927.25
2024-05-09T08:24:24.592Z,96928.98
2024-05-09T08:26:57.336Z,96920.73
2024-05-09T08:29:30.913Z,96923.05
2024-05-09T08:32:03.386Z,96916.33
2024-05-09T08:34:36.123Z,96910.94
2024-05-09T08:37:13.252Z,96909.20
2024-05-09T08:39:52.401Z,96904.30
2024-05-09T08:42:26.354Z,96902.35
2024-05-09T08:44:59.484Z,96900.73
2024-05-09T08:47:34.421Z,96895.52
2024-05-09T08:50:16.573Z,96893.16
2024-05-09T08:52:57.475Z,96891.25
2024-05-09T08:55:30.056Z,96885.54
2024-05-09T08:58:04.096Z,96886.39
2024-05-09T09:00:37.844Z,96879.89
2024-05-09T09:03:13.348Z,96878.86
2024-05-09T09:05:50.657Z,96872.23
2024-05-09T09:08:23.435Z,96862.42
2024-05-09T09:10:57.652Z,96861.37
2024-05-09T09:13:30.817Z,96858.55
2024-05-09T09:16:03.759Z,96853.05
2024-05-09T09:18:36.942Z,96854.83
2024-05-09T09:21:13.028Z,96850.23
2024-05-09T09:23:46.405Z,96841.50
2024-05-09T09:26:22.487Z,96836.00
2024-05-09T09:28:55.150Z,96831.48
2024-05-09T09:31:28.099Z,96833.79
2024-05-09T09:34:06.350Z,96829.76
2024-05-09T09:36:39.309Z,96824.11
2024-05-09T09:39:12.536Z,96824.73
2024-05-09T09:41:47.494Z,96823.82
2024-05-09T09:44:20.133Z,96822.30
2024-05-09T09:46:53.196Z,96818.52
2024-05-09T09:49:26.330Z,96814.80
2024-05-09T09:51:59.190Z,96811.41
2024-05-09T09:54:32.481Z,96810.80
2024-05-09T09:57:06.840Z,96806.17
2024-05-09T09:59:39.951Z,96806.51
2024-05-09T10:02:15.302Z,96804.52
2024-05-09T10:04:48.348Z,96797.10
2024-05-09T10:07:22.708Z,96798.48
2024-05-09T10:09:59.296Z,96798.36
2024-05-09T10:12:31.983Z,96796.48
2024-05-09T10:15:10.312Z,96798.58
2024-05-09T10:17:52.582Z,96796.38
2024-05-09T10:20:30.812Z,96792.67
2024-05-09T10:23:05.506Z,96790.36
2024-05-09T10:25:38.042Z,96791.13
2024-05-09T10:28:13.940Z,96789.90
2024-05-09T10:30:48.934Z,96782.48
2024-05-09T10:33:22.576Z,96783.61
2024-05-09T10:35:56.047Z,96783.70
2024-05-09T10:38:29.256Z,96781.15
2024-05-09T10:41:03.091Z,96777.86
2024-05-09T10:43:37.491Z,96771.83
2024-05-09T10:46:11.184Z,96769.80
2024-05-09T10:48:45.956Z,96768.75
2024-05-09T10:51:20.189Z,96764.98
2024-05-09T10:53:52.730Z,96756.63
2024-05-09T10:56:25.400Z,96749.92
2024-05-09T10:58:57.958Z,96746.92
2024-05-09T11:01:30.581Z,96748.52
2024-05-09T11:04:04.399Z,96750.57
2024-05-09T11:06:38.586Z,96743.54
2024-05-09T11:09:11.285Z,96739.38
2024-05-09T11:11:44.488Z,96728.88
2024-05-09T11:14:17.434Z,96724.30
2024-05-09T11:16:50.106Z,96719.74
2024-05-09T11:19:22.742Z,96719.36
2024-05-09T11:21:55.686Z,96719.59
2024-05-09T11:24:28.375Z,96712.35
2024-05-09T11:27:01.950Z,96712.11
2024-05-09T11:29:44.903Z,96706.88
2024-05-09T11:32:18.237Z,96703.17
2024-05-09T11:34:51.074Z,96690.60
2024-05-09T11:37:24.087Z,96694.88
2024-05-09T11:39:56.744Z,96686.30
2024-05-09T11:42:29.405Z,96682.09
2024-05-09T11:45:01.808Z,96679.83
2024-05-09T11:47:34.836Z,96683.45
2024-05-09T11:50:12.914Z,96682.77
2024-05-09T11:52:48.763Z,96677.12
2024-05-09T11:55:26.771Z,96677.11
2024-05-09T11:58:00.618Z,96676.61
2024-05-09T12:00:37.149Z,96678.26
2024-05-09T12:03:10.758Z,96677.80
2024-05-09T12:05:43.656Z,96672.32
2024-05-09T12:08:16.594Z,96667.85
2024-05-09T12:10:49.928Z,96670.52
2024-05-09T12:13:23.054Z,96664.32
2024-05-09T12:15:57.020Z,96668.84
2024-05-09T12:18:29.693Z,96664.42
2024-05-09T12:21:02.487Z,96665.11
2024-05-09T12:23:35.204Z,96662.13
2024-05-09T12:26:08.145Z,96661.66
2024-05-09T12:28:40.820Z,96659.83
2024-05-09T12:31:13.601Z,96659.77
2024-05-09T12:33:47.271Z,96659.48
2024-05-09T12:36:20.073Z,96659.02
2024-05-09T12:38:52.607Z,96658.21
2024-05-09T12:41:25.241Z,96661.08
2024-05-09T12:43:57.863Z,96655.04
2024-05-09T12:46:32.015Z,96653.17
2024-05-09T12:49:04.981Z,96652.77
2024-05-09T12:51:38.397Z,96648.45
2024-05-09T12:54:11.174Z,96651.92
2024-05-09T12:56:43.934Z,96652.63
2024-05-09T12:59:16.855Z,96657.27
2024-05-09T13:01:49.456Z,96656.73
2024-05-09T13:04:22.231Z,96662.40
2024-05-09T13:06:55.034Z,96658.64
2024-05-09T13:09:27.931Z,96659.69
2024-05-09T13:12:00.886Z,96661.45
2024-05-09T13:14:33.616Z,96657.34
2024-05-09T13:17:06.488Z,96653.67
2024-05-09T13:19:39.003Z,96648.81
2024-05-09T13:22:11.576Z,96650.02
2024-05-09T13:24:44.700Z,96653.88
2024-05-09T13:27:17.377Z,96648.00
2024-05-09T13:29:50.465Z,96644.56
2024-05-09T13:32:23.307Z,96639.77
2024-05-09T13:34:56.252Z,96641.38
2024-05-09T13:37:29.185Z,96641.54
2024-05-09T13:40:02.264Z,96639.47
2024-05-09T13:42:34.950Z,96636.43
2024-05-09T13:45:08.755Z,96633.81
2024-05-09T13:47:41.831Z,96633.73
2024-05-09T13:50:23.633Z,96633.16
2024-05-09T13:53:05.798Z,96631.77
2024-05-09T13:55:40.894Z,96627.30
2024-05-09T13:58:13.850Z,96633.69
2024-05-09T14:00:49.015Z,96634.25
2024-05-09T14:03:22.568Z,96631.67
2024-05-09T14:05:55.983Z,96633.21
2024-05-09T14:08:29.011Z,96629.59
2024-05-09T14:11:01.912Z,96633.15
2024-05-09T14:13:34.700Z,96629.94
2024-05-09T14:16:09.312Z,96628.71
2024-05-09T14:18:42.121Z,96633.54
2024-05-09T14:21:14.758Z,96634.44
2024-05-09T14:23:47.241Z,96638.30
2024-05-09T14:26:20.077Z,96643.42
2024-05-09T14:28:53.057Z,96646.52
2024-05-09T14:31:25.811Z,96648.27
2024-05-09T14:33:58.498Z,96646.94
2024-05-09T14:36:33.287Z,96644.81
2024-05-09T14:39:06.059Z,96645.26
2024-05-09T14:41:39.125Z,96646.42
2024-05-09T14:44:12.750Z,96643.98
2024-05-09T14:46:45.772Z,96641.49
2024-05-09T14:49:18.603Z,96641.33
2024-05-09T14:51:51.657Z,96637.23
2024-05-09T14:54:24.275Z,96637.81
2024-05-09T14:56:58.170Z,96638.19
2024-05-09T14:59:30.981Z,96636.06
2024-05-09T15:02:03.635Z,96641.45
2024-05-09T15:04:36.500Z,96643.30
2024-05-09T15:07:11.587Z,96644.94
2024-05-09T15:09:44.381Z,96643.77
2024-05-09T15:12:17.295Z,96643.08
2024-05-09T15:14:49.942Z,96645.89
2024-05-09T15:17:22.677Z,96642.20
2024-05-09T15:19:55.477Z,96646.41
2024-05-09T15:22:28.094Z,96648.64
2024-05-09T15:25:00.875Z,96652.36
2024-05-09T15:27:33.404Z,96654.13
2024-05-09T15:30:10.341Z,96657.74
2024-05-09T15:32:43.329Z,96655.57
2024-05-09T15:35:16.228Z,96655.59
2024-05-09T15:37:49.078Z,96659.92
2024-05-09T15:40:30.925Z,96663.42
2024-05-09T15:43:11.634Z,96665.03
2024-05-09T15:45:44.613Z,96667.26
2024-05-09T15:48:17.219Z,96674.64
2024-05-09T15:50:50.326Z,96675.23
2024-05-09T15:53:23.037Z,96677.98
2024-05-09T15:55:55.602Z,96676.31
2024-05-09T15:58:28.275Z,96680.83
2024-05-09T16:01:01.185Z,96685.33
2024-05-09T16:03:34.257Z,96688.70
2024-05-09T16:06:07.439Z,96690.41
2024-05-09T16:08:40.338Z,96689.23
2024-05-09T16:11:16.803Z,96694.05
2024-05-09T16:13:48.161Z,96698.52
2024-05-09T16:16:21.088Z,96698.56
2024-05-09T16:18:53.746Z,96700.30
2024-05-09T16:21:26.350Z,96704.11
2024-05-09T16:24:00.052Z,96706.73
2024-05-09T16:26:32.753Z,96709.48
2024-05-09T16:29:05.438Z,96705.38
2024-05-09T16:31:38.287Z,96709.08
2024-05-09T16:34:10.925Z,96712.04
2024-05-09T16:36:44.256Z,96712.16
2024-05-09T16:39:18.489Z,96715.98
2024-05-09T16:41:51.705Z,96717.28
2024-05-09T16:44:24.213Z,96718.80
2024-05-09T16:46:56.807Z,96714.88
2024-05-09T16:49:30.136Z,96717.18
2024-05-09T16:52:03.162Z,96715.94
2024-05-09T16:54:35.887Z,96720.20
2024-05-09T16:57:09.374Z,96720.61
2024-05-09T16:59:42.015Z,96726.28
2024-05-09T17:02:14.926Z,96723.95
2024-05-09T17:04:47.729Z,96726.98
2024-05-09T17:07:22.646Z,96729.38
2024-05-09T17:09:55.621Z,96736.60
2024-05-09T17:12:28.602Z,96740.58
2024-05-09T17:15:01.409Z,96743.40
2024-05-09T17:17:34.593Z,96747.34
2024-05-09T17:20:15.584Z,96751.94
2024-05-09T17:22:56.058Z,96756.12
2024-05-09T17:25:29.130Z,96758.25
2024-05-09T17:28:07.899Z,96759.63
2024-05-09T17:30:42.760Z,96759.86
2024-05-09T17:33:16.447Z,96760.38
2024-05-09T17:35:51.391Z,96756.95
2024-05-09T17:38:24.268Z,96754.37
2024-05-09T17:40:57.956Z,96761.26
2024-05-09T17:43:30.948Z,96771.19
2024-05-09T17:46:03.805Z,96777.42
2024-05-09T17:48:36.828Z,96783.84
2024-05-09T17:51:10.058Z,96787.88
2024-05-09T17:53:42.566Z,96794.59
2024-05-09T17:56:15.274Z,96795.64
2024-05-09T17:58:49.053Z,96797.85
2024-05-09T18:01:22.090Z,96795.77
2024-05-09T18:03:55.193Z,96793.86
2024-05-09T18:06:28.171Z,96794.02
2024-05-09T18:09:00.718Z,96794.54
2024-05-09T18:11:36.102Z,96793.46
2024-05-09T18:14:09.192Z,96789.70
2024-05-09T18:16:42.287Z,96792.45
2024-05-09T18:19:15.396Z,96791.79
2024-05-09T18:21:48.066Z,96792.34
2024-05-09T18:24:22.293Z,96790.58
2024-05-09T18:26:55.023Z,96790.40
2024-05-09T18:29:27.558Z,96789.66
2024-05-09T18:32:00.183Z,96792.21
2024-05-09T18:34:33.033Z,96797.82
2024-05-09T18:37:06.358Z,96800.94
2024-05-09T18:39:38.869Z,96805.45
2024-05-09T18:42:11.503Z,96807.84
2024-05-09T18:44:44.028Z,96806.44
2024-05-09T18:47:19.881Z,96810.88
2024-05-09T18:49:53.031Z,96813.49
2024-05-09T18:52:25.969Z,96816.69
2024-05-09T18:54:58.649Z,96814.40
2024-05-09T18:57:31.684Z,96814.45
2024-05-09T19:00:05.760Z,96817.52
2024-05-09T19:02:38.914Z,96816.72
2024-05-09T19:05:12.008Z,96819.50
2024-05-09T19:07:44.991Z,96817.73
2024-05-09T19:10:22.714Z,96817.16
2024-05-09T19:12:58.783Z,96821.59
2024-05-09T19:15:31.358Z,96818.27
2024-05-09T19:18:04.077Z,96824.34
2024-05-09T19:20:37.664Z,96832.21
2024-05-09T19:23:11.846Z,96834.48
2024-05-09T19:25:44.744Z,96832.79
2024-05-09T19:28:17.544Z,96835.11
2024-05-09T19:30:50.373Z,96831.30
2024-05-09T19:33:23.254Z,96840.42
2024-05-09T19:35:55.797Z,96839.52
2024-05-09T19:38:28.361Z,96842.58
2024-05-09T19:41:01.916Z,96838.11
2024-05-09T19:43:35.967Z,96835.47
2024-05-09T19:46:09.137Z,96832.04
2024-05-09T19:48:41.832Z,96828.48
2024-05-09T19:51:14.587Z,96829.31
2024-05-09T19:53:47.254Z,96837.13
2024-05-09T19:56:19.896Z,96838.59
2024-05-09T19:58:52.597Z,96837.21
2024-05-09T20:01:25.236Z,96835.62
2024-05-09T20:03:59.361Z,96833.20
2024-05-09T20:06:32.228Z,96827.70
2024-05-09T20:09:04.943Z,96830.11
2024-05-09T20:11:38.969Z,96827.95
2024-05-09T20:14:11.616Z,96826.20
2024-05-09T20:16:44.532Z,96830.17
2024-05-09T20:19:17.236Z,96830.96
2024-05-09T20:21:50.285Z,96829.89
2024-05-09T20:24:22.804Z,96828.77
2024-05-09T20:26:55.356Z,96825.86
2024-05-09T20:29:27.924Z,96821.79
2024-05-09T20:32:00.644Z,96822.73
2024-05-09T20:34:33.308Z,96823.27
2024-05-09T20:37:06.129Z,96821.45
2024-05-09T20:39:38.937Z,96822.57
2024-05-09T20:42:11.606Z,96824.70
2024-05-09T20:44:45.295Z,96825.23
2024-05-09T20:47:18.756Z,96823.86
2024-05-09T20:49:51.675Z,96824.98
2024-05-09T20:52:24.415Z,96828.92
2024-05-09T20:54:56.951Z,96832.45
2024-05-09T20:57:29.764Z,96834.27
2024-05-09T21:00:02.556Z,96836.11
2024-05-09T21:02:38.586Z,96835.45
2024-05-09T21:05:12.452Z,96838.27
2024-05-09T21:07:45.147Z,96839.20
2024-05-09T21:10:22.415Z,96840.65
2024-05-09T21:12:55.767Z,96839.80
2024-05-09T21:15:28.326Z,96841.75
2024-05-09T21:18:00.900Z,96840.31
2024-05-09T21:20:35.308Z,96835.90
2024-05-09T21:23:08.364Z,96833.80
2024-05-09T21:25:41.108Z,96833.52
2024-05-09T21:28:16.838Z,96833.19
2024-05-09T21:30:49.484Z,96834.59
2024-05-09T21:33:22.206Z,96836.25
2024-05-09T21:35:55.739Z,96841.58
2024-05-09T21:38:30.795Z,96840.83
2024-05-09T21:41:03.661Z,96841.78
2024-05-09T21:43:39.051Z,96837.71
2024-05-09T21:46:11.695Z,96832.27
2024-05-09T21:48:44.400Z,96831.20
2024-05-09T21:51:20.018Z,96832.63
2024-05-09T21:53:52.624Z,96837.17
2024-05-09T21:56:25.108Z,96837.83
2024-05-09T21:58:57.651Z,96838.41
2024-05-09T22:01:30.618Z,96836.30
2024-05-09T22:04:03.408Z,96829.58
2024-05-09T22:06:36.139Z,96823.13
2024-05-09T22:09:08.691Z,96822.86
2024-05-09T22:11:41.271Z,96826.80
2024-05-09T22:14:13.948Z,96830.81
2024-05-09T22:16:47.107Z,96836.70
2024-05-09T22:19:20.077Z,96837.38
2024-05-09T22:21:52.847Z,96833.40
2024-05-09T22:24:25.524Z,96831.81
2024-05-09T22:26:58.137Z,96832.09
2024-05-09T22:29:30.959Z,96833.36
2024-05-09T22:32:03.841Z,96833.67
2024-05-09T22:34:36.572Z,96834.26
2024-05-09T22:37:09.686Z,96834.89
2024-05-09T22:39:42.748Z,96836.57
2024-05-09T22:42:15.321Z,96835.72
2024-05-09T22:44:49.040Z,96838.63
2024-05-09T22:47:22.066Z,96838.80
2024-05-09T22:49:54.739Z,96834.55
2024-05-09T22:52:27.182Z,96837.50
2024-05-09T22:54:59.762Z,96833.64
2024-05-09T22:57:32.423Z,96836.27
2024-05-09T23:00:07.919Z,96837.89
2024-05-09T23:02:42.580Z,96834.35
2024-05-09T23:05:15.791Z,96834.88
2024-05-09T23:07:48.500Z,96831.26
2024-05-09T23:10:28.034Z,96828.58
2024-05-09T23:13:08.379Z,96828.39
2024-05-09T23:15:41.433Z,96827.45
2024-05-09T23:18:14.094Z,96826.20
2024-05-09T23:20:46.700Z,96822.14
2024-05-09T23:23:20.596Z,96818.79
2024-05-09T23:25:54.037Z,96814.14
2024-05-09T23:28:26.834Z,96814.33
2024-05-09T23:30:59.720Z,96813.91
2024-05-09T23:33:32.584Z,96819.76
2024-05-09T23:36:05.572Z,96819.16
2024-05-09T23:38:38.150Z,96818.72
2024-05-09T23:41:10.717Z,96821.36
2024-05-09T23:43:43.531Z,96818.91
2024-05-09T23:46:16.109Z,96812.59
2024-05-09T23:48:48.915Z,96812.20
2024-05-09T23:51:21.636Z,96809.10
2024-05-09T23:53:54.484Z,96816.11
2024-05-09T23:56:27.097Z,96818.70
2024-05-09T23:58:59.849Z,96817.95
